Time;durP1;ratioP1;P1;durP2;ratioP2;P2;SDS_P1;SDS_P2;PMS_P1;PMS_P2;Temp;Humidity;BMP_temperature;BMP_pressure;BME280_temperature;BME280_humidity;BME280_pressure;Samples;Min_cycle;Max_cycle;Signal;HPM_P1;HPM_P2
2022/05/16 00:00:10;;;;;;;;;;;23.90;55.00;;;;;;5072902;28;20344;-46
2022/05/16 00:02:38;;;;;;;;;;;23.90;55.10;;;;;;5072787;28;19925;-48
2022/05/16 00:05:05;;;;;;;;;;;23.90;55.10;;;;;;5072307;28;19924;-47
2022/05/16 00:07:33;;;;;;;;;;;23.90;55.00;;;;;;5072772;28;19930;-47
2022/05/16 00:10:00;;;;;;;;;;;23.90;55.10;;;;;;5071898;28;19924;-46
2022/05/16 00:12:27;;;;;;;;;;;23.90;55.00;;;;;;5072270;28;19932;-48
2022/05/16 00:14:54;;;;;;;;;;;23.90;55.00;;;;;;5072396;28;20414;-46
2022/05/16 00:17:22;;;;;;;;;;;23.90;55.00;;;;;;5072421;28;19924;-48
2022/05/16 00:19:49;;;;;;;;;;;23.90;55.10;;;;;;5072503;28;19925;-51
2022/05/16 00:22:16;;;;;;;;;;;23.90;55.10;;;;;;5072172;28;19931;-48
2022/05/16 00:24:43;;;;;;;;;;;23.90;55.10;;;;;;5072183;28;19924;-50
2022/05/16 00:27:11;;;;;;;;;;;23.90;55.10;;;;;;5072572;28;19933;-53
2022/05/16 00:29:38;;;;;;;;;;;23.90;55.10;;;;;;5072153;28;19932;-50
2022/05/16 00:32:06;;;;;;;;;;;23.90;55.10;;;;;;5072414;28;19924;-47
2022/05/16 00:34:33;;;;;;;;;;;23.90;55.10;;;;;;5072169;28;19925;-49
2022/05/16 00:37:00;;;;;;;;;;;23.90;55.10;;;;;;5072240;28;19931;-47
2022/05/16 00:39:27;;;;;;;;;;;23.90;55.10;;;;;;5076310;28;19931;-47
2022/05/16 00:41:54;;;;;;;;;;;23.90;55.10;;;;;;5092113;28;20383;-52
2022/05/16 00:44:22;;;;;;;;;;;23.90;55.10;;;;;;5092309;28;19924;-49
2022/05/16 00:46:49;;;;;;;;;;;23.90;55.10;;;;;;5093891;28;19924;-49
2022/05/16 00:49:19;;;;;;;;;;;23.90;55.10;;;;;;5095435;28;19924;-48
2022/05/16 00:51:47;;;;;;;;;;;23.90;55.10;;;;;;5075926;28;19924;-50
2022/05/16 00:54:14;;;;;;;;;;;23.90;55.10;;;;;;5075679;28;19938;-48
2022/05/16 00:56:41;;;;;;;;;;;23.90;55.10;;;;;;5075390;28;20296;-50
2022/05/16 00:59:09;;;;;;;;;;;23.90;55.10;;;;;;5076203;28;19953;-50
2022/05/16 01:07:06;;;;;;;;;;;23.90;55.10;;;;;;5075718;28;19975;-49
2022/05/16 01:09:33;;;;;;;;;;;23.90;55.10;;;;;;5075513;28;19928;-52
2022/05/16 01:12:00;;;;;;;;;;;23.90;55.10;;;;;;5075838;28;20342;-47
2022/05/16 01:14:38;;;;;;;;;;;23.90;55.10;;;;;;5075472;28;20300;-46
2022/05/16 01:17:06;;;;;;;;;;;23.90;55.20;;;;;;5075743;28;19925;-45
2022/05/16 01:19:33;;;;;;;;;;;23.90;55.20;;;;;;5075291;28;20392;-50
2022/05/16 01:22:02;;;;;;;;;;;23.90;55.20;;;;;;5075229;28;20297;-45
2022/05/16 01:24:29;;;;;;;;;;;23.90;55.20;;;;;;5075445;28;19931;-45
2022/05/16 01:26:56;;;;;;;;;;;23.90;55.70;;;;;;5075007;28;19932;-45
2022/05/16 01:29:23;;;;;;;;;;;23.90;55.20;;;;;;5075302;28;19931;-45
2022/05/16 01:31:50;;;;;;;;;;;23.90;55.20;;;;;;5075007;28;19931;-47
2022/05/16 01:34:18;;;;;;;;;;;23.90;55.20;;;;;;5075289;28;19932;-48
2022/05/16 01:36:45;;;;;;;;;;;23.80;55.10;;;;;;5088039;28;19924;-46
2022/05/16 01:39:12;;;;;;;;;;;23.90;55.20;;;;;;5095311;28;19924;-45
2022/05/16 01:41:39;;;;;;;;;;;23.90;55.20;;;;;;5094796;28;19928;-46
2022/05/16 01:44:06;;;;;;;;;;;23.90;55.20;;;;;;5094787;28;19927;-47
2022/05/16 01:46:34;;;;;;;;;;;23.80;55.10;;;;;;5095443;28;19930;-48
2022/05/16 01:49:02;;;;;;;;;;;23.80;55.10;;;;;;5095392;28;19924;-46
2022/05/16 01:51:29;;;;;;;;;;;23.90;55.20;;;;;;5075182;28;19924;-49
2022/05/16 01:53:56;;;;;;;;;;;23.80;55.10;;;;;;5074729;28;19971;-48
2022/05/16 01:56:23;;;;;;;;;;;23.80;55.10;;;;;;5089753;28;19924;-46
2022/05/16 01:58:50;;;;;;;;;;;23.80;55.10;;;;;;5094098;28;19924;-51
2022/05/16 02:01:18;;;;;;;;;;;23.80;55.10;;;;;;5093786;28;19931;-48
2022/05/16 02:03:46;;;;;;;;;;;23.90;55.20;;;;;;5094647;28;19928;-46
2022/05/16 02:06:13;;;;;;;;;;;23.80;55.10;;;;;;5094482;28;19932;-47
2022/05/16 02:08:41;;;;;;;;;;;23.80;55.10;;;;;;5093514;28;19924;-47
2022/05/16 02:11:08;;;;;;;;;;;23.80;55.10;;;;;;5075976;28;20392;-46
2022/05/16 02:13:37;;;;;;;;;;;23.80;55.10;;;;;;5074613;28;20350;-48
2022/05/16 02:16:04;;;;;;;;;;;23.80;55.10;;;;;;5074526;28;19932;-46
2022/05/16 02:18:33;;;;;;;;;;;23.80;55.10;;;;;;5074443;28;19924;-45
2022/05/16 02:26:32;;;;;;;;;;;23.80;55.10;;;;;;5074586;28;19925;-47
2022/05/16 02:28:59;;;;;;;;;;;23.80;55.10;;;;;;5073807;28;19931;-47
2022/05/16 02:31:26;;;;;;;;;;;23.80;55.10;;;;;;5076859;28;19951;-48
2022/05/16 02:33:53;;;;;;;;;;;23.80;55.10;;;;;;5094544;28;20356;-46
2022/05/16 02:36:20;;;;;;;;;;;23.80;55.10;;;;;;5094066;28;20403;-46
2022/05/16 02:38:47;;;;;;;;;;;23.80;55.10;;;;;;5093950;28;19924;-47
2022/05/16 02:41:14;;;;;;;;;;;23.80;55.10;;;;;;5093878;28;19932;-49
2022/05/16 02:43:41;;;;;;;;;;;23.80;55.20;;;;;;5093404;28;20278;-47
2022/05/16 02:46:08;;;;;;;;;;;23.80;55.10;;;;;;5094046;28;20354;-46
2022/05/16 02:48:35;;;;;;;;;;;23.80;55.10;;;;;;5094136;28;20462;-47
2022/05/16 02:51:03;;;;;;;;;;;23.80;55.10;;;;;;5077484;28;20388;-47
2022/05/16 02:53:30;;;;;;;;;;;23.80;55.10;;;;;;5053654;28;19925;-47
2022/05/16 02:55:57;;;;;;;;;;;23.80;55.20;;;;;;5053936;28;19925;-45
2022/05/16 02:58:24;;;;;;;;;;;23.80;55.20;;;;;;5053502;28;19932;-46
2022/05/16 03:00:52;;;;;;;;;;;23.80;55.20;;;;;;5053322;28;19924;-48
2022/05/16 03:03:19;;;;;;;;;;;23.80;55.10;;;;;;5053447;28;19954;-46
2022/05/16 03:05:46;;;;;;;;;;;23.80;55.20;;;;;;5057838;28;19932;-47
2022/05/16 03:08:13;;;;;;;;;;;23.80;55.10;;;;;;5073151;28;19925;-47
2022/05/16 03:10:40;;;;;;;;;;;23.80;55.20;;;;;;5053619;28;19925;-45
2022/05/16 03:13:07;;;;;;;;;;;23.80;55.20;;;;;;5053189;28;19936;-46
2022/05/16 03:15:34;;;;;;;;;;;23.80;55.20;;;;;;5068427;28;20175;-46
2022/05/16 03:18:01;;;;;;;;;;;23.80;55.20;;;;;;5053086;28;20493;-48
2022/05/16 03:20:28;;;;;;;;;;;23.80;55.20;;;;;;5052851;28;20388;-46
2022/05/16 03:22:55;;;;;;;;;;;23.80;55.20;;;;;;5052947;28;20293;-46
2022/05/16 03:25:23;;;;;;;;;;;23.80;55.20;;;;;;5053376;28;19924;-48
2022/05/16 03:27:50;;;;;;;;;;;23.80;55.20;;;;;;5069669;28;19924;-47
2022/05/16 03:30:17;;;;;;;;;;;23.80;55.20;;;;;;5093142;28;20397;-49
2022/05/16 03:32:44;;;;;;;;;;;23.80;55.20;;;;;;5093280;28;19931;-47
2022/05/16 03:35:11;;;;;;;;;;;23.80;55.20;;;;;;5093200;28;20447;-48
2022/05/16 03:37:38;;;;;;;;;;;23.80;55.10;;;;;;5093223;28;19932;-46
2022/05/16 03:42:52;;;;;;;;;;;23.80;55.10;;;;;;5092841;28;19924;-50
2022/05/16 03:45:19;;;;;;;;;;;23.80;55.10;;;;;;5089092;28;19975;-49
2022/05/16 03:47:48;;;;;;;;;;;23.80;55.10;;;;;;5072282;28;20387;-45
2022/05/16 03:50:15;;;;;;;;;;;23.80;55.10;;;;;;5072864;28;19935;-51
2022/05/16 03:52:42;;;;;;;;;;;23.80;55.10;;;;;;5072498;28;19924;-49
2022/05/16 03:55:13;;;;;;;;;;;23.90;55.20;;;;;;5072644;28;20015;-46
2022/05/16 03:57:42;;;;;;;;;;;23.80;55.10;;;;;;5072715;28;19924;-47
2022/05/16 04:00:12;;;;;;;;;;;23.90;55.20;;;;;;5072820;28;19925;-49
2022/05/16 04:02:40;;;;;;;;;;;23.90;55.20;;;;;;5073298;28;19925;-48
2022/05/16 04:05:08;;;;;;;;;;;23.90;55.10;;;;;;5072721;28;20011;-46
2022/05/16 04:07:36;;;;;;;;;;;23.90;55.10;;;;;;5072538;28;19932;-49
2022/05/16 04:10:03;;;;;;;;;;;23.90;55.00;;;;;;5057221;28;19925;-47
2022/05/16 04:12:30;;;;;;;;;;;23.90;55.00;;;;;;5052597;28;19932;-47
2022/05/16 04:14:57;;;;;;;;;;;23.90;55.00;;;;;;5052331;28;19936;-46
2022/05/16 04:17:24;;;;;;;;;;;23.90;55.00;;;;;;5052184;28;19931;-46
2022/05/16 04:19:51;;;;;;;;;;;23.90;55.00;;;;;;5052281;28;19925;-48
2022/05/16 04:22:19;;;;;;;;;;;23.90;55.00;;;;;;5055148;28;20295;-47
2022/05/16 04:24:46;;;;;;;;;;;23.90;55.50;;;;;;5073057;28;19931;-47
2022/05/16 04:27:13;;;;;;;;;;;23.90;54.90;;;;;;5085711;28;19924;-46
2022/05/16 04:29:40;;;;;;;;;;;24.00;54.90;;;;;;5076108;28;20402;-47
2022/05/16 04:32:07;;;;;;;;;;;24.00;54.80;;;;;;5076517;28;19928;-48
2022/05/16 04:34:34;;;;;;;;;;;24.10;55.40;;;;;;5076517;28;20382;-46
2022/05/16 04:37:01;;;;;;;;;;;24.10;54.70;;;;;;5075714;28;19925;-46
2022/05/16 04:39:28;;;;;;;;;;;24.10;54.70;;;;;;5075978;28;19931;-47
2022/05/16 04:44:41;;;;;;;;;;;24.10;54.70;;;;;;5076259;28;19931;-46
2022/05/16 04:47:08;;;;;;;;;;;24.10;54.70;;;;;;5075897;28;19929;-47
2022/05/16 04:49:36;;;;;;;;;;;24.10;54.70;;;;;;5076119;28;19928;-47
2022/05/16 04:52:03;;;;;;;;;;;24.10;54.70;;;;;;5075496;28;19932;-47
2022/05/16 04:54:30;;;;;;;;;;;24.10;54.70;;;;;;5076243;28;19924;-46
2022/05/16 04:56:57;;;;;;;;;;;24.10;54.60;;;;;;5095379;28;19928;-46
2022/05/16 04:59:24;;;;;;;;;;;24.10;54.60;;;;;;5095716;28;20371;-47
2022/05/16 05:01:51;;;;;;;;;;;24.10;54.60;;;;;;5075460;28;19932;-46
2022/05/16 05:04:19;;;;;;;;;;;24.10;54.60;;;;;;5075943;28;19947;-46
2022/05/16 05:06:47;;;;;;;;;;;24.10;54.50;;;;;;5075180;28;20411;-49
2022/05/16 05:09:14;;;;;;;;;;;24.10;54.50;;;;;;5075387;28;19925;-46
2022/05/16 05:14:32;;;;;;;;;;;24.20;54.60;;;;;;5075422;28;19924;-49
2022/05/16 05:17:04;;;;;;;;;;;24.20;54.50;;;;;;5075247;28;20026;-52
2022/05/16 05:19:33;;;;;;;;;;;24.20;54.60;;;;;;5074808;28;20270;-55
2022/05/16 05:22:00;;;;;;;;;;;24.20;54.60;;;;;;5090676;28;19924;-49
2022/05/16 05:24:27;;;;;;;;;;;24.20;54.60;;;;;;5095538;28;19946;-49
2022/05/16 05:26:54;;;;;;;;;;;24.20;54.50;;;;;;5086553;28;19935;-50
2022/05/16 05:29:22;;;;;;;;;;;24.20;54.50;;;;;;5075558;28;19924;-49
2022/05/16 05:31:50;;;;;;;;;;;24.20;54.50;;;;;;5075086;28;19924;-46
2022/05/16 05:34:17;;;;;;;;;;;24.20;54.40;;;;;;5073813;28;19928;-45
2022/05/16 05:36:44;;;;;;;;;;;24.20;54.40;;;;;;5074900;28;19990;-47
2022/05/16 05:39:16;;;;;;;;;;;24.20;54.40;;;;;;5074361;28;19931;-51
2022/05/16 05:41:44;;;;;;;;;;;24.30;54.40;;;;;;5081575;28;20018;-49
2022/05/16 05:44:11;;;;;;;;;;;24.30;54.40;;;;;;5095202;28;20387;-51
2022/05/16 05:46:40;;;;;;;;;;;24.30;54.40;;;;;;5094837;28;19939;-47
2022/05/16 05:49:07;;;;;;;;;;;24.30;54.40;;;;;;5094666;28;19955;-49
2022/05/16 05:51:34;;;;;;;;;;;24.30;54.40;;;;;;5090441;28;20008;-49
2022/05/16 05:54:01;;;;;;;;;;;24.30;54.40;;;;;;5075009;28;19925;-46
2022/05/16 05:56:28;;;;;;;;;;;24.30;54.40;;;;;;5083232;28;19925;-52
2022/05/16 05:58:56;;;;;;;;;;;24.30;54.30;;;;;;5074151;28;19931;-47
2022/05/16 06:01:25;;;;;;;;;;;24.30;54.30;;;;;;5074540;28;19924;-52
2022/05/16 06:03:53;;;;;;;;;;;24.30;54.30;;;;;;5074333;28;20631;-52
2022/05/16 06:06:20;;;;;;;;;;;24.30;54.40;;;;;;5074754;28;19928;-51
2022/05/16 06:08:47;;;;;;;;;;;24.30;54.40;;;;;;5074439;28;19928;-52
2022/05/16 06:11:14;;;;;;;;;;;24.30;54.40;;;;;;5074341;28;19931;-51
2022/05/16 06:13:41;;;;;;;;;;;24.30;54.40;;;;;;5073842;28;20392;-48
2022/05/16 06:16:08;;;;;;;;;;;24.30;54.40;;;;;;5074358;28;19924;-53
2022/05/16 06:18:36;;;;;;;;;;;24.30;54.40;;;;;;5092169;28;20342;-53
2022/05/16 06:21:03;;;;;;;;;;;24.30;54.40;;;;;;5094673;28;19924;-48
2022/05/16 06:23:30;;;;;;;;;;;24.30;54.40;;;;;;5082866;28;19925;-49
2022/05/16 06:25:58;;;;;;;;;;;24.30;54.40;;;;;;5073935;28;19931;-51
2022/05/16 06:28:26;;;;;;;;;;;24.30;54.40;;;;;;5073915;28;19940;-49
2022/05/16 06:30:56;;;;;;;;;;;24.30;54.40;;;;;;5073856;28;19929;-48
2022/05/16 06:33:28;;;;;;;;;;;24.30;54.40;;;;;;5073445;28;19971;-54
2022/05/16 06:35:56;;;;;;;;;;;24.30;54.30;;;;;;5058582;28;19931;-49
2022/05/16 06:38:25;;;;;;;;;;;24.30;54.30;;;;;;5054068;28;19925;-50
2022/05/16 06:40:52;;;;;;;;;;;24.30;54.30;;;;;;5053784;28;19924;-48
2022/05/16 06:43:20;;;;;;;;;;;24.40;54.40;;;;;;5073538;28;19929;-48
2022/05/16 06:45:47;;;;;;;;;;;24.40;54.40;;;;;;5073530;28;20300;-47
2022/05/16 06:48:15;;;;;;;;;;;24.40;54.40;;;;;;5074191;28;19925;-50
2022/05/16 06:50:43;;;;;;;;;;;24.40;54.40;;;;;;5073490;28;19938;-48
2022/05/16 06:53:14;;;;;;;;;;;24.40;54.30;;;;;;5073839;28;19924;-48
2022/05/16 06:55:42;;;;;;;;;;;24.40;54.30;;;;;;5073833;28;19924;-50
2022/05/16 06:58:09;;;;;;;;;;;24.40;54.30;;;;;;5073325;28;19925;-47
2022/05/16 07:00:36;;;;;;;;;;;24.40;54.30;;;;;;5072162;28;20275;-51
2022/05/16 07:03:04;;;;;;;;;;;24.40;54.20;;;;;;5073740;28;19970;-45
2022/05/16 07:05:48;;;;;;;;;;;24.40;54.20;;;;;;5072965;28;20384;-46
2022/05/16 07:08:19;;;;;;;;;;;24.40;54.20;;;;;;5073374;28;19924;-46
2022/05/16 07:10:48;;;;;;;;;;;24.40;54.20;;;;;;5073031;28;19928;-48
2022/05/16 07:13:22;;;;;;;;;;;24.40;54.10;;;;;;5081820;28;19924;-47
2022/05/16 07:15:49;;;;;;;;;;;24.40;54.10;;;;;;5093269;28;19931;-51
2022/05/16 07:18:16;;;;;;;;;;;24.50;54.20;;;;;;5093105;28;19924;-47
2022/05/16 07:20:43;;;;;;;;;;;24.40;54.10;;;;;;5073437;28;19931;-48
2022/05/16 07:23:10;;;;;;;;;;;24.50;54.70;;;;;;5073162;28;19924;-52
2022/05/16 07:28:23;;;;;;;;;;;24.50;54.10;;;;;;5073023;28;19925;-48
2022/05/16 07:30:51;;;;;;;;;;;24.50;54.10;;;;;;5072526;28;19932;-49
2022/05/16 07:33:18;;;;;;;;;;;24.50;54.10;;;;;;5073306;28;20303;-48
2022/05/16 07:35:50;;;;;;;;;;;24.50;54.10;;;;;;5072721;28;19931;-45
2022/05/16 07:38:18;;;;;;;;;;;24.50;54.00;;;;;;5073087;28;19925;-48
2022/05/16 07:40:46;;;;;;;;;;;24.50;54.00;;;;;;5072723;28;19924;-48
2022/05/16 07:43:13;;;;;;;;;;;24.60;54.00;;;;;;5092434;28;20002;-48
2022/05/16 07:45:40;;;;;;;;;;;24.60;53.90;;;;;;5092766;28;19924;-48
2022/05/16 07:48:07;;;;;;;;;;;24.60;53.80;;;;;;5090286;28;19935;-49
2022/05/16 07:50:36;;;;;;;;;;;24.60;53.70;;;;;;5052449;28;19929;-47
2022/05/16 07:53:05;;;;;;;;;;;24.70;53.80;;;;;;5069027;28;19924;-46
2022/05/16 07:55:32;;;;;;;;;;;24.70;53.70;;;;;;5079731;28;20014;-54
2022/05/16 07:57:59;;;;;;;;;;;24.70;53.60;;;;;;5092319;28;20433;-50
2022/05/16 08:00:26;;;;;;;;;;;24.70;53.60;;;;;;5092480;28;19924;-50
2022/05/16 08:02:53;;;;;;;;;;;24.70;53.60;;;;;;5092286;28;19982;-52
2022/05/16 08:05:21;;;;;;;;;;;24.70;53.60;;;;;;5090877;28;20411;-54
2022/05/16 08:10:35;;;;;;;;;;;24.70;53.60;;;;;;5088777;28;19931;-53
2022/05/16 08:13:04;;;;;;;;;;;24.70;53.60;;;;;;5092606;28;20288;-52
2022/05/16 08:15:33;;;;;;;;;;;24.70;53.60;;;;;;5085308;28;19924;-47
2022/05/16 08:18:02;;;;;;;;;;;24.70;53.60;;;;;;5072192;28;19978;-49
2022/05/16 08:20:29;;;;;;;;;;;24.80;53.60;;;;;;5071851;28;20406;-51
2022/05/16 08:22:57;;;;;;;;;;;24.80;54.10;;;;;;5072257;28;19936;-50
2022/05/16 08:25:25;;;;;;;;;;;24.80;53.50;;;;;;5072625;28;19931;-53
2022/05/16 08:27:52;;;;;;;;;;;24.80;53.40;;;;;;5072080;28;20380;-50
2022/05/16 08:30:20;;;;;;;;;;;24.90;53.50;;;;;;5072109;28;19924;-51
2022/05/16 08:32:48;;;;;;;;;;;24.90;53.40;;;;;;5072385;28;19978;-54
2022/05/16 08:35:16;;;;;;;;;;;24.90;53.40;;;;;;5072221;28;19931;-54
2022/05/16 08:40:41;;;;;;;;;;;24.90;53.30;;;;;;5072430;28;19925;-50
2022/05/16 08:43:14;;;;;;;;;;;24.90;53.30;;;;;;5090976;28;19924;-52
2022/05/16 08:45:44;;;;;;;;;;;24.90;53.20;;;;;;5081276;28;19924;-54
2022/05/16 08:48:11;;;;;;;;;;;24.90;53.20;;;;;;5072331;28;19931;-46
2022/05/16 08:50:44;;;;;;;;;;;24.90;53.20;;;;;;5071777;28;19924;-49
2022/05/16 08:53:12;;;;;;;;;;;25.00;53.20;;;;;;5072018;28;19925;-53
2022/05/16 08:55:50;;;;;;;;;;;25.00;53.20;;;;;;5080915;28;19982;-54
2022/05/16 08:58:20;;;;;;;;;;;25.00;53.20;;;;;;5091567;28;19927;-45
2022/05/16 09:01:13;;;;;;;;;;;25.00;53.10;;;;;;5092491;28;19981;-47
2022/05/16 09:03:50;;;;;;;;;;;25.00;53.10;;;;;;5090255;28;19931;-47
2022/05/16 09:06:19;;;;;;;;;;;25.00;53.10;;;;;;5082046;28;19934;-48
2022/05/16 09:08:55;;;;;;;;;;;25.00;53.10;;;;;;5074889;28;20015;-46
2022/05/16 09:11:22;;;;;;;;;;;25.00;53.00;;;;;;5074953;28;19924;-46
2022/05/16 09:13:51;;;;;;;;;;;25.00;53.00;;;;;;5075559;28;20342;-45
2022/05/16 09:16:33;;;;;;;;;;;25.00;53.00;;;;;;5075361;28;19931;-45
2022/05/16 09:19:20;;;;;;;;;;;25.00;53.10;;;;;;5075645;28;20292;-46
2022/05/16 09:21:51;;;;;;;;;;;25.10;53.10;;;;;;5074962;28;20007;-48
2022/05/16 09:24:21;;;;;;;;;;;25.00;53.00;;;;;;5074996;28;19931;-50
2022/05/16 09:26:51;;;;;;;;;;;25.00;53.00;;;;;;5074918;28;19931;-48
2022/05/16 09:29:23;;;;;;;;;;;25.00;53.10;;;;;;5075197;28;19947;-47
2022/05/16 09:31:52;;;;;;;;;;;25.00;53.10;;;;;;5074765;28;19925;-48
2022/05/16 09:34:27;;;;;;;;;;;25.00;53.10;;;;;;5075112;28;20462;-48
2022/05/16 09:36:54;;;;;;;;;;;25.00;53.10;;;;;;5075105;28;19928;-48
2022/05/16 09:39:24;;;;;;;;;;;25.00;53.20;;;;;;5073483;28;20474;-47
2022/05/16 09:41:51;;;;;;;;;;;25.00;53.10;;;;;;5082499;28;19963;-48
2022/05/16 09:44:29;;;;;;;;;;;25.00;53.10;;;;;;5095297;28;19924;-53
2022/05/16 09:47:16;;;;;;;;;;;25.00;53.10;;;;;;5095036;28;19930;-50
2022/05/16 09:49:43;;;;;;;;;;;25.00;53.10;;;;;;5095196;28;19973;-46
2022/05/16 09:52:21;;;;;;;;;;;25.10;53.10;;;;;;5085507;28;20015;-47
2022/05/16 09:54:58;;;;;;;;;;;25.10;53.10;;;;;;5076178;28;19925;-48
2022/05/16 09:57:26;;;;;;;;;;;25.10;53.10;;;;;;5095332;28;20350;-47
2022/05/16 09:59:55;;;;;;;;;;;25.10;53.10;;;;;;5094664;28;19928;-45
2022/05/16 10:02:32;;;;;;;;;;;25.10;53.10;;;;;;5082876;28;19928;-48
2022/05/16 10:05:22;;;;;;;;;;;25.00;53.10;;;;;;5074338;28;19931;-47
2022/05/16 10:07:58;;;;;;;;;;;25.00;53.10;;;;;;5068933;28;19924;-46
2022/05/16 10:10:28;;;;;;;;;;;25.00;53.10;;;;;;5074399;28;19947;-49
2022/05/16 10:12:57;;;;;;;;;;;25.00;53.10;;;;;;5073989;28;19928;-47
2022/05/16 10:15:24;;;;;;;;;;;25.00;53.10;;;;;;5074618;28;19924;-47
2022/05/16 10:17:54;;;;;;;;;;;25.00;53.20;;;;;;5090146;28;19924;-46
2022/05/16 10:20:24;;;;;;;;;;;25.00;53.20;;;;;;5073527;28;19947;-46
2022/05/16 10:22:53;;;;;;;;;;;25.00;53.80;;;;;;5073987;28;19928;-50
2022/05/16 10:25:33;;;;;;;;;;;25.00;53.30;;;;;;5074158;28;19924;-47
2022/05/16 10:28:03;;;;;;;;;;;25.00;53.30;;;;;;5074332;28;19924;-47
2022/05/16 10:33:24;;;;;;;;;;;25.00;53.60;;;;;;5074027;28;19931;-44
2022/05/16 10:33:26;;;;;;;;;;;25.00;53.30;;;;;;5074234;28;20261;-45
2022/05/16 10:35:53;;;;;;;;;;;25.00;53.40;;;;;;5073807;28;20380;-46
2022/05/16 10:38:38;;;;;;;;;;;25.00;53.40;;;;;;5072871;28;21285;-48
2022/05/16 10:41:10;;;;;;;;;;;25.00;53.40;;;;;;5075143;28;20014;-48
2022/05/16 10:44:08;;;;;;;;;;;25.00;53.40;;;;;;5093971;28;19924;-47
2022/05/16 10:46:39;;;;;;;;;;;25.00;53.40;;;;;;5077895;28;19924;-46
2022/05/16 10:49:09;;;;;;;;;;;25.00;53.30;;;;;;5078957;28;19931;-47
2022/05/16 10:51:36;;;;;;;;;;;25.00;53.30;;;;;;5073277;28;19960;-49
2022/05/16 10:54:10;;;;;;;;;;;25.00;53.30;;;;;;5073481;28;20360;-46
2022/05/16 10:56:37;;;;;;;;;;;25.00;53.30;;;;;;5072427;28;20526;-48
2022/05/16 10:59:10;;;;;;;;;;;25.00;53.30;;;;;;5076128;28;20371;-47
2022/05/16 11:01:42;;;;;;;;;;;25.00;53.20;;;;;;5073546;28;19974;-51
2022/05/16 11:04:31;;;;;;;;;;;25.00;53.20;;;;;;5073257;28;19932;-47
2022/05/16 11:07:05;;;;;;;;;;;25.00;53.20;;;;;;5073057;28;19932;-49
2022/05/16 11:09:44;;;;;;;;;;;25.10;53.80;;;;;;5073147;28;19959;-47
2022/05/16 11:12:16;;;;;;;;;;;25.10;53.20;;;;;;5073185;28;19925;-49
2022/05/16 11:14:49;;;;;;;;;;;25.10;53.10;;;;;;5073162;28;20334;-50
2022/05/16 11:17:22;;;;;;;;;;;25.10;53.00;;;;;;5073404;28;20018;-49
2022/05/16 11:19:59;;;;;;;;;;;25.20;53.00;;;;;;5072717;28;19925;-49
2022/05/16 11:22:32;;;;;;;;;;;25.20;52.90;;;;;;5072731;28;19928;-45
2022/05/16 11:25:12;;;;;;;;;;;25.20;52.80;;;;;;5072835;28;19931;-51
2022/05/16 11:27:42;;;;;;;;;;;25.30;52.80;;;;;;5073037;28;20017;-50
2022/05/16 11:30:15;;;;;;;;;;;25.30;52.80;;;;;;5072812;28;19924;-48
2022/05/16 11:32:56;;;;;;;;;;;25.30;52.70;;;;;;5072510;28;19978;-51
2022/05/16 11:35:27;;;;;;;;;;;25.30;52.60;;;;;;5073006;28;19925;-49
2022/05/16 11:38:13;;;;;;;;;;;25.30;52.60;;;;;;5072079;28;19961;-51
2022/05/16 11:40:46;;;;;;;;;;;25.30;52.60;;;;;;5072592;28;19924;-51
2022/05/16 11:43:14;;;;;;;;;;;25.30;52.60;;;;;;5092162;28;19930;-51
2022/05/16 11:46:04;;;;;;;;;;;25.30;52.60;;;;;;5075135;28;19932;-53
2022/05/16 11:48:45;;;;;;;;;;;25.30;52.60;;;;;;5072965;28;19932;-53
2022/05/16 11:51:32;;;;;;;;;;;25.30;52.60;;;;;;5072604;28;20257;-47
2022/05/16 11:54:01;;;;;;;;;;;25.40;52.60;;;;;;5075400;28;20291;-49
2022/05/16 12:02:34;;;;;;;;;;;25.40;52.50;;;;;;5072624;28;19925;-54
2022/05/16 12:05:01;;;;;;;;;;;25.40;52.50;;;;;;5072878;28;20303;-47
2022/05/16 12:07:38;;;;;;;;;;;25.40;52.40;;;;;;5072748;28;20024;-47
2022/05/16 12:10:08;;;;;;;;;;;25.40;52.40;;;;;;5072764;28;19925;-53
2022/05/16 12:12:37;;;;;;;;;;;25.40;52.40;;;;;;5072635;28;20288;-50
2022/05/16 12:15:13;;;;;;;;;;;25.40;52.40;;;;;;5072458;28;19932;-54
2022/05/16 12:17:54;;;;;;;;;;;25.40;52.40;;;;;;5072518;28;19924;-49
2022/05/16 12:20:33;;;;;;;;;;;25.40;52.50;;;;;;5072545;28;20341;-54
2022/05/16 12:23:01;;;;;;;;;;;25.40;52.50;;;;;;5072254;28;19967;-50
2022/05/16 12:25:37;;;;;;;;;;;25.40;52.60;;;;;;5072588;28;19964;-47
2022/05/16 12:28:13;;;;;;;;;;;25.40;52.60;;;;;;5072527;28;20308;-48
2022/05/16 12:30:42;;;;;;;;;;;25.30;52.60;;;;;;5072209;28;19924;-52
2022/05/16 12:33:29;;;;;;;;;;;25.30;52.60;;;;;;5072564;28;20356;-50
2022/05/16 12:35:56;;;;;;;;;;;25.30;52.60;;;;;;5072154;28;19928;-51
2022/05/16 12:38:25;;;;;;;;;;;25.30;52.70;;;;;;5072265;28;20387;-47
2022/05/16 12:41:04;;;;;;;;;;;25.30;52.70;;;;;;5072321;28;19971;-47
2022/05/16 12:43:49;;;;;;;;;;;25.30;52.70;;;;;;5055001;28;19931;-53
2022/05/16 12:46:22;;;;;;;;;;;25.30;52.80;;;;;;5056215;28;19947;-52
2022/05/16 12:49:07;;;;;;;;;;;25.30;52.80;;;;;;5060618;28;19924;-45
2022/05/16 12:51:43;;;;;;;;;;;25.20;52.90;;;;;;5078076;28;19931;-50
2022/05/16 12:54:22;;;;;;;;;;;25.20;52.90;;;;;;5075825;28;19924;-46
2022/05/16 12:56:51;;;;;;;;;;;25.20;53.00;;;;;;5075701;28;19925;-45
2022/05/16 12:59:36;;;;;;;;;;;25.20;53.10;;;;;;5075825;28;19932;-47
2022/05/16 13:02:26;;;;;;;;;;;25.10;53.00;;;;;;5075714;28;19925;-46
2022/05/16 13:04:53;;;;;;;;;;;25.10;53.10;;;;;;5075856;28;20307;-46
2022/05/16 13:07:38;;;;;;;;;;;25.10;53.10;;;;;;5075812;28;19924;-46
2022/05/16 13:10:09;;;;;;;;;;;25.10;53.20;;;;;;5075839;28;19942;-47
2022/05/16 13:12:42;;;;;;;;;;;25.10;53.20;;;;;;5075454;28;19925;-46
2022/05/16 13:15:18;;;;;;;;;;;25.10;53.20;;;;;;5075942;28;20299;-47
2022/05/16 13:17:50;;;;;;;;;;;25.10;53.30;;;;;;5075190;28;19924;-45
2022/05/16 13:20:20;;;;;;;;;;;25.00;53.30;;;;;;5075470;28;19966;-47
2022/05/16 13:22:48;;;;;;;;;;;25.00;53.30;;;;;;5075457;28;19931;-48
2022/05/16 13:25:17;;;;;;;;;;;25.00;53.30;;;;;;5075678;28;19924;-47
2022/05/16 13:30:41;;;;;;;;;;;25.00;53.30;;;;;;5074825;28;19961;-46
2022/05/16 13:33:26;;;;;;;;;;;25.00;53.40;;;;;;5074081;28;20376;-48
2022/05/16 13:35:53;;;;;;;;;;;25.00;53.40;;;;;;5075175;28;20296;-49
2022/05/16 13:38:20;;;;;;;;;;;25.00;53.40;;;;;;5074961;28;19931;-47
2022/05/16 13:40:48;;;;;;;;;;;25.00;53.40;;;;;;5074923;28;19928;-47
2022/05/16 13:43:17;;;;;;;;;;;25.00;53.50;;;;;;5094590;28;19931;-48
2022/05/16 13:45:44;;;;;;;;;;;25.00;53.50;;;;;;5085538;28;19925;-47
2022/05/16 13:48:13;;;;;;;;;;;25.00;53.50;;;;;;5074819;28;20019;-47
2022/05/16 13:50:42;;;;;;;;;;;25.00;53.50;;;;;;5074951;28;20037;-47
2022/05/16 13:53:14;;;;;;;;;;;25.00;53.50;;;;;;5074443;28;19924;-51
2022/05/16 13:55:52;;;;;;;;;;;24.90;53.50;;;;;;5073842;28;19931;-46
2022/05/16 13:58:19;;;;;;;;;;;25.00;53.60;;;;;;5074667;28;19983;-51
2022/05/16 14:00:48;;;;;;;;;;;24.90;53.50;;;;;;5074872;28;19975;-49
2022/05/16 14:03:28;;;;;;;;;;;24.90;53.50;;;;;;5075001;28;19993;-47
2022/05/16 14:05:56;;;;;;;;;;;24.90;53.50;;;;;;5074337;28;19929;-47
2022/05/16 14:08:43;;;;;;;;;;;24.90;53.50;;;;;;5074648;28;19925;-51
2022/05/16 14:11:16;;;;;;;;;;;24.90;53.60;;;;;;5074791;28;19924;-48
2022/05/16 14:13:45;;;;;;;;;;;25.00;53.60;;;;;;5074644;28;19948;-47
2022/05/16 14:16:14;;;;;;;;;;;24.90;53.60;;;;;;5074362;28;19924;-46
2022/05/16 14:18:41;;;;;;;;;;;24.90;53.50;;;;;;5073804;28;19928;-46
2022/05/16 14:21:15;;;;;;;;;;;24.90;53.50;;;;;;5074034;28;19924;-46
2022/05/16 14:23:48;;;;;;;;;;;24.90;53.60;;;;;;5073842;28;20011;-46
2022/05/16 14:26:22;;;;;;;;;;;24.90;53.50;;;;;;5074546;28;19924;-48
2022/05/16 14:28:51;;;;;;;;;;;24.90;53.60;;;;;;5074102;28;19931;-47
2022/05/16 14:31:22;;;;;;;;;;;24.90;53.60;;;;;;5074270;28;19930;-50
2022/05/16 14:33:50;;;;;;;;;;;24.90;53.60;;;;;;5074025;28;20299;-49
2022/05/16 14:36:23;;;;;;;;;;;24.90;53.60;;;;;;5073954;28;19954;-47
2022/05/16 14:38:51;;;;;;;;;;;24.90;53.70;;;;;;5073820;28;20019;-46
2022/05/16 14:41:24;;;;;;;;;;;24.90;53.70;;;;;;5076368;28;20025;-47
2022/05/16 14:44:02;;;;;;;;;;;24.90;53.70;;;;;;5080089;28;19928;-47
2022/05/16 14:46:43;;;;;;;;;;;24.90;53.70;;;;;;5073500;28;19925;-47
2022/05/16 14:49:12;;;;;;;;;;;24.90;53.80;;;;;;5074028;28;19970;-46
2022/05/16 14:51:40;;;;;;;;;;;24.90;53.80;;;;;;5073385;28;19925;-48
2022/05/16 14:54:20;;;;;;;;;;;24.90;53.70;;;;;;5073115;28;19934;-47
2022/05/16 14:56:47;;;;;;;;;;;24.90;53.70;;;;;;5091749;28;19931;-51
2022/05/16 14:59:14;;;;;;;;;;;24.90;53.70;;;;;;5093793;28;19930;-53
2022/05/16 15:04:27;;;;;;;;;;;24.90;53.60;;;;;;5093717;28;19924;-55
2022/05/16 15:07:00;;;;;;;;;;;24.90;53.60;;;;;;5093066;28;19964;-49
2022/05/16 15:09:29;;;;;;;;;;;24.90;53.60;;;;;;5074513;28;19925;-54
2022/05/16 15:11:58;;;;;;;;;;;24.90;53.60;;;;;;5073257;28;20295;-49